createdAt,value
2023-02-02T00:01:37.389Z,7.70
2023-02-02T00:04:06.084Z,7.70
2023-02-02T00:06:35.762Z,7.70
2023-02-02T00:09:04.908Z,7.70
2023-02-02T00:11:33.112Z,7.70
2023-02-02T00:14:02.004Z,7.70
2023-02-02T00:16:42.617Z,7.70
2023-02-02T00:19:13.189Z,7.70
2023-02-02T00:21:43.376Z,7.70
2023-02-02T00:24:14.082Z,7.70
2023-02-02T00:26:43.803Z,7.70
2023-02-02T00:29:17.199Z,7.70
2023-02-02T00:31:45.888Z,7.80
2023-02-02T00:34:14.949Z,7.70
2023-02-02T00:36:45.300Z,7.70
2023-02-02T00:39:16.832Z,7.70
2023-02-02T00:41:44.938Z,7.70
2023-02-02T00:44:30.794Z,7.70
2023-02-02T00:46:59.217Z,7.70
2023-02-02T00:49:27.524Z,7.70
2023-02-02T00:51:57.295Z,7.70
2023-02-02T00:54:26.731Z,7.70
2023-02-02T00:56:55.034Z,7.70
2023-02-02T00:59:23.310Z,7.70
2023-02-02T01:01:51.659Z,7.70
2023-02-02T01:04:19.959Z,7.70
2023-02-02T01:06:48.310Z,7.70
2023-02-02T01:09:18.017Z,7.60
2023-02-02T01:11:46.315Z,7.70
2023-02-02T01:14:14.678Z,7.60
2023-02-02T01:16:43.019Z,7.70
2023-02-02T01:19:13.507Z,7.70
2023-02-02T01:21:41.881Z,7.70
2023-02-02T01:24:10.265Z,7.60
2023-02-02T01:26:40.072Z,7.60
2023-02-02T01:29:08.400Z,7.60
2023-02-02T01:31:36.755Z,7.70
2023-02-02T01:34:05.038Z,7.70
2023-02-02T01:36:33.325Z,7.60
2023-02-02T01:39:01.804Z,7.60
2023-02-02T01:41:30.298Z,7.60
2023-02-02T01:44:02.076Z,7.60
2023-02-02T01:46:31.898Z,7.70
2023-02-02T01:49:07.376Z,7.60
2023-02-02T01:51:49.268Z,7.60
2023-02-02T01:54:22.209Z,7.60
2023-02-02T01:56:56.829Z,7.60
2023-02-02T01:59:27.755Z,7.70
2023-02-02T02:01:57.041Z,7.70
2023-02-02T02:04:26.500Z,7.70
2023-02-02T02:06:54.998Z,7.60
2023-02-02T02:09:24.176Z,7.70
2023-02-02T02:11:54.895Z,7.60
2023-02-02T02:14:42.235Z,7.70
2023-02-02T02:17:33.762Z,7.70
2023-02-02T02:20:39.275Z,7.70
2023-02-02T02:23:57.667Z,7.70
2023-02-02T02:26:57.282Z,7.60
2023-02-02T02:29:51.093Z,7.70
2023-02-02T02:32:32.546Z,7.60
2023-02-02T02:35:06.450Z,7.60
2023-02-02T02:37:44.203Z,7.60
2023-02-02T02:40:18.629Z,7.60
2023-02-02T02:42:51.296Z,7.60
2023-02-02T02:45:20.838Z,7.60
2023-02-02T02:47:52.569Z,7.60
2023-02-02T02:50:22.018Z,7.70
2023-02-02T02:52:54.783Z,7.70
2023-02-02T02:55:25.310Z,7.70
2023-02-02T02:58:05.812Z,7.70
2023-02-02T03:00:44.020Z,7.70
2023-02-02T03:03:24.871Z,7.70
2023-02-02T03:05:58.161Z,7.60
2023-02-02T03:08:32.589Z,7.60
2023-02-02T03:11:03.376Z,7.70
2023-02-02T03:13:33.266Z,7.60
2023-02-02T03:16:01.983Z,7.70
2023-02-02T03:18:33.731Z,7.60
2023-02-02T03:21:02.403Z,7.70
2023-02-02T03:23:30.701Z,7.60
2023-02-02T03:25:59.667Z,7.60
2023-02-02T03:28:28.826Z,7.70
2023-02-02T03:30:58.966Z,7.80
2023-02-02T03:33:27.499Z,7.80
2023-02-02T03:35:58.674Z,7.70
2023-02-02T03:38:26.982Z,7.70
2023-02-02T03:40:55.287Z,7.60
2023-02-02T03:43:39.385Z,7.60
2023-02-02T03:46:12.488Z,7.60
2023-02-02T03:48:50.176Z,7.60
2023-02-02T03:51:22.182Z,7.90
2023-02-02T03:53:53.450Z,7.70
2023-02-02T03:56:22.132Z,7.70
2023-02-02T03:58:58.388Z,7.70
2023-02-02T04:01:30.055Z,7.60
2023-02-02T04:06:31.504Z,7.70
2023-02-02T04:09:02.098Z,8.40
2023-02-02T04:11:31.204Z,6.80
2023-02-02T04:14:11.078Z,7.70
2023-02-02T04:16:39.965Z,7.70
2023-02-02T04:19:09.201Z,7.80
2023-02-02T04:21:44.598Z,7.70
2023-02-02T04:24:20.680Z,7.90
2023-02-02T04:26:49.237Z,7.70
2023-02-02T04:29:23.435Z,7.70
2023-02-02T04:31:52.270Z,7.70
2023-02-02T04:34:24.035Z,7.70
2023-02-02T04:36:54.601Z,7.80
2023-02-02T04:39:23.715Z,7.80
2023-02-02T04:41:54.805Z,7.70
2023-02-02T04:44:26.676Z,7.70
2023-02-02T04:47:00.285Z,7.60
2023-02-02T04:49:33.300Z,7.60
2023-02-02T04:52:08.131Z,7.80
2023-02-02T04:54:39.985Z,7.70
2023-02-02T04:57:11.795Z,6.70
2023-02-02T04:59:43.570Z,7.70
2023-02-02T05:02:12.397Z,7.80
2023-02-02T05:04:43.880Z,7.80
2023-02-02T05:07:17.458Z,7.70
2023-02-02T05:09:51.754Z,7.20
2023-02-02T05:12:20.862Z,8.10
2023-02-02T05:15:00.512Z,7.70
2023-02-02T05:17:33.328Z,7.70
2023-02-02T05:20:09.352Z,7.70
2023-02-02T05:22:48.840Z,7.70
2023-02-02T05:25:18.272Z,7.70
2023-02-02T05:27:50.571Z,7.70
2023-02-02T05:30:21.110Z,7.80
2023-02-02T05:32:54.604Z,7.70
2023-02-02T05:35:23.867Z,7.70
2023-02-02T05:38:01.840Z,7.70
2023-02-02T05:40:48.062Z,7.70
2023-02-02T05:43:21.319Z,7.70
2023-02-02T05:45:57.995Z,7.70
2023-02-02T05:48:53.244Z,7.60
2023-02-02T05:51:28.630Z,6.80
2023-02-02T05:54:00.944Z,7.70
2023-02-02T05:56:38.820Z,7.60
2023-02-02T05:59:17.972Z,7.60
2023-02-02T06:01:50.069Z,7.90
2023-02-02T06:04:24.135Z,7.60
2023-02-02T06:06:55.141Z,7.70
2023-02-02T06:09:25.415Z,7.60
2023-02-02T06:15:18.139Z,7.70
2023-02-02T06:17:58.877Z,7.80
2023-02-02T06:20:51.838Z,7.70
2023-02-02T06:24:05.582Z,7.70
2023-02-02T06:27:15.517Z,7.60
2023-02-02T06:29:53.162Z,7.70
2023-02-02T06:32:53.532Z,7.50
2023-02-02T06:36:25.831Z,7.70
2023-02-02T06:39:08.363Z,7.70
2023-02-02T06:41:41.986Z,7.70
2023-02-02T06:44:30.939Z,7.70
2023-02-02T06:47:18.671Z,7.70
2023-02-02T06:50:21.022Z,7.90
2023-02-02T06:53:04.982Z,7.70
2023-02-02T06:55:46.425Z,7.60
2023-02-02T06:58:21.593Z,7.60
2023-02-02T07:00:50.911Z,7.70
2023-02-02T07:03:35.320Z,7.60
2023-02-02T07:06:15.829Z,7.60
2023-02-02T07:08:44.657Z,7.60
2023-02-02T07:11:16.395Z,7.60
2023-02-02T07:13:47.362Z,7.60
2023-02-02T07:16:15.829Z,7.70
2023-02-02T07:18:44.350Z,7.70
2023-02-02T07:21:18.786Z,7.60
2023-02-02T07:23:47.834Z,7.70
2023-02-02T07:26:18.978Z,7.60
2023-02-02T07:28:49.522Z,7.70
2023-02-02T07:31:19.823Z,7.70
2023-02-02T07:33:49.605Z,7.70
2023-02-02T07:36:19.829Z,7.70
2023-02-02T07:38:49.990Z,7.70
2023-02-02T07:41:18.514Z,7.70
2023-02-02T07:43:49.711Z,7.60
2023-02-02T07:46:19.588Z,7.60
2023-02-02T07:48:48.542Z,7.60
2023-02-02T07:51:19.549Z,7.70
2023-02-02T07:53:48.916Z,7.60
2023-02-02T07:56:18.975Z,7.60
2023-02-02T07:58:49.330Z,7.60
2023-02-02T08:01:19.495Z,7.60
2023-02-02T08:03:47.867Z,7.60
2023-02-02T08:06:19.114Z,7.60
2023-02-02T08:08:47.906Z,7.60
2023-02-02T08:11:17.917Z,7.60
2023-02-02T08:13:49.776Z,7.70
2023-02-02T08:16:20.324Z,7.70
2023-02-02T08:18:49.087Z,7.70
2023-02-02T08:21:18.295Z,7.70
2023-02-02T08:23:46.890Z,7.60
2023-02-02T08:26:18.661Z,7.70
2023-02-02T08:28:50.508Z,7.60
2023-02-02T08:31:22.716Z,7.60
2023-02-02T08:33:51.757Z,7.90
2023-02-02T08:36:22.579Z,7.70
2023-02-02T08:38:51.639Z,7.70
2023-02-02T08:41:22.669Z,7.70
2023-02-02T08:46:22.723Z,7.70
2023-02-02T08:48:51.185Z,7.70
2023-02-02T08:51:20.756Z,7.70
2023-02-02T08:53:49.228Z,7.60
2023-02-02T08:56:20.362Z,7.70
2023-02-02T08:58:49.703Z,7.80
2023-02-02T09:01:19.971Z,7.70
2023-02-02T09:03:49.994Z,7.70
2023-02-02T09:06:21.192Z,7.70
2023-02-02T09:08:49.588Z,7.70
2023-02-02T09:11:19.770Z,7.70
2023-02-02T09:13:50.243Z,7.70
2023-02-02T09:16:22.154Z,7.70
2023-02-02T09:18:52.309Z,7.70
2023-02-02T09:21:21.099Z,7.70
2023-02-02T09:23:50.562Z,7.70
2023-02-02T09:26:21.044Z,7.70
2023-02-02T09:28:51.111Z,7.60
2023-02-02T09:31:19.670Z,7.70
2023-02-02T09:33:48.040Z,7.80
2023-02-02T09:36:20.314Z,7.80
2023-02-02T09:38:49.713Z,7.70
2023-02-02T09:41:57.853Z,7.70
2023-02-02T09:44:46.682Z,7.70
2023-02-02T09:47:21.267Z,7.70
2023-02-02T09:49:59.900Z,7.70
2023-02-02T09:52:32.731Z,7.70
2023-02-02T09:55:04.771Z,7.70
2023-02-02T09:57:39.198Z,7.80
2023-02-02T10:00:17.233Z,7.80
2023-02-02T10:02:50.030Z,7.70
2023-02-02T10:05:22.466Z,7.70
2023-02-02T10:07:57.831Z,7.70
2023-02-02T10:10:29.977Z,7.70
2023-02-02T10:13:05.232Z,7.70
2023-02-02T10:15:40.618Z,7.70
2023-02-02T10:18:18.511Z,7.60
2023-02-02T10:20:52.462Z,7.60
2023-02-02T10:23:28.136Z,7.60
2023-02-02T10:25:58.619Z,7.60
2023-02-02T10:28:44.596Z,7.60
2023-02-02T10:31:20.856Z,7.70
2023-02-02T10:34:02.487Z,7.60
2023-02-02T10:36:41.660Z,7.60
2023-02-02T10:39:23.547Z,7.60
2023-02-02T10:42:05.051Z,7.60
2023-02-02T10:44:41.080Z,7.60
2023-02-02T10:47:14.290Z,7.60
2023-02-02T10:49:43.032Z,7.60
2023-02-02T10:52:18.677Z,7.60
2023-02-02T10:54:58.122Z,7.70
2023-02-02T10:57:44.260Z,7.70
2023-02-02T11:00:22.877Z,7.70
2023-02-02T11:02:52.822Z,7.70
2023-02-02T11:05:41.421Z,7.80
2023-02-02T11:08:15.613Z,7.80
2023-02-02T11:10:49.061Z,7.70
2023-02-02T11:13:26.629Z,7.80
2023-02-02T11:16:21.440Z,7.70
2023-02-02T11:18:50.162Z,7.80
2023-02-02T11:21:20.978Z,7.80
2023-02-02T11:23:57.867Z,7.80
2023-02-02T11:26:28.529Z,7.70
2023-02-02T11:28:59.968Z,7.70
2023-02-02T11:31:34.048Z,7.70
2023-02-02T11:34:20.575Z,7.70
2023-02-02T11:37:05.387Z,7.70
2023-02-02T11:39:33.767Z,7.70
2023-02-02T11:42:07.634Z,7.70
2023-02-02T11:44:36.755Z,7.70
2023-02-02T11:47:06.618Z,7.60
2023-02-02T11:49:39.940Z,7.70
2023-02-02T11:52:17.672Z,7.70
2023-02-02T11:54:50.121Z,7.70
2023-02-02T11:57:22.520Z,7.60
2023-02-02T11:59:52.232Z,7.70
2023-02-02T12:02:31.488Z,7.60
2023-02-02T12:05:28.196Z,7.60
2023-02-02T12:07:56.746Z,7.60
2023-02-02T12:10:32.814Z,7.60
2023-02-02T12:13:09.785Z,7.60
2023-02-02T12:15:48.883Z,7.40
2023-02-02T12:18:33.723Z,7.60
2023-02-02T12:21:06.477Z,7.70
2023-02-02T12:23:52.132Z,7.70
2023-02-02T12:26:26.825Z,7.70
2023-02-02T12:29:14.851Z,7.70
2023-02-02T12:32:01.124Z,7.70
2023-02-02T12:34:41.480Z,7.60
2023-02-02T12:37:21.323Z,7.60
2023-02-02T12:40:04.014Z,7.60
2023-02-02T12:42:53.036Z,7.70
2023-02-02T12:45:49.220Z,7.60
2023-02-02T12:48:33.586Z,7.60
2023-02-02T12:51:15.285Z,7.60
2023-02-02T12:54:34.545Z,7.60
2023-02-02T12:59:43.566Z,7.60
2023-02-02T13:02:25.293Z,7.70
2023-02-02T13:05:12.762Z,7.70
2023-02-02T13:07:43.733Z,7.70
2023-02-02T13:10:24.729Z,7.70
2023-02-02T13:12:57.819Z,7.70
2023-02-02T13:15:32.966Z,7.70
2023-02-02T13:18:07.416Z,7.70
2023-02-02T13:20:43.519Z,7.70
2023-02-02T13:23:18.438Z,7.70
2023-02-02T13:25:51.595Z,7.60
2023-02-02T13:28:32.069Z,7.70
2023-02-02T13:31:06.355Z,7.70
2023-02-02T13:33:38.267Z,7.70
2023-02-02T13:36:15.030Z,7.70
2023-02-02T13:38:45.667Z,7.60
2023-02-02T13:41:14.836Z,7.60
2023-02-02T13:43:52.680Z,7.60
2023-02-02T13:46:28.811Z,7.60
2023-02-02T13:49:05.590Z,7.60
2023-02-02T13:51:49.777Z,7.60
2023-02-02T13:54:55.107Z,7.70
2023-02-02T13:57:53.023Z,7.70
2023-02-02T14:00:24.547Z,7.60
2023-02-02T14:02:53.816Z,7.60
2023-02-02T14:05:28.006Z,7.60
2023-02-02T14:08:03.094Z,7.70
2023-02-02T14:10:35.210Z,7.70
2023-02-02T14:13:32.851Z,7.60
2023-02-02T14:16:05.503Z,7.70
2023-02-02T14:18:53.654Z,7.70
2023-02-02T14:22:03.679Z,7.70
2023-02-02T14:24:47.068Z,7.70
2023-02-02T14:27:55.656Z,7.70
2023-02-02T14:30:33.831Z,7.60
2023-02-02T14:33:47.285Z,7.70
2023-02-02T14:36:18.032Z,7.70
2023-02-02T14:39:11.500Z,7.70
2023-02-02T14:42:22.376Z,7.70
2023-02-02T14:45:15.913Z,7.70
2023-02-02T14:47:49.784Z,7.70
2023-02-02T14:50:23.572Z,7.70
2023-02-02T14:53:04.556Z,7.70
2023-02-02T14:55:35.104Z,7.70
2023-02-02T14:58:06.993Z,7.70
2023-02-02T15:00:36.836Z,7.70
2023-02-02T15:03:34.636Z,7.70
2023-02-02T15:06:05.166Z,7.70
2023-02-02T15:08:33.617Z,7.70
2023-02-02T15:11:25.704Z,7.70
2023-02-02T15:14:14.254Z,7.70
2023-02-02T15:16:43.768Z,7.70
2023-02-02T15:19:27.319Z,7.70
2023-02-02T15:21:58.516Z,7.70
2023-02-02T15:24:29.487Z,7.70
2023-02-02T15:27:03.095Z,7.70
2023-02-02T15:29:42.739Z,7.70
2023-02-02T15:32:18.448Z,7.60
2023-02-02T15:34:50.316Z,7.70
2023-02-02T15:37:23.949Z,7.70
2023-02-02T15:39:54.249Z,7.70
2023-02-02T15:42:43.930Z,7.70
2023-02-02T15:45:31.219Z,7.70
2023-02-02T15:48:01.633Z,7.70
2023-02-02T15:50:30.134Z,7.70
2023-02-02T15:52:58.626Z,7.70
2023-02-02T15:55:32.310Z,7.70
2023-02-02T15:58:02.827Z,7.60
2023-02-02T16:00:33.965Z,7.60
2023-02-02T16:03:05.763Z,7.70
2023-02-02T16:05:45.462Z,7.70
2023-02-02T16:08:19.069Z,7.70
2023-02-02T16:10:49.475Z,7.70
2023-02-02T16:13:26.442Z,7.70
2023-02-02T16:16:00.612Z,7.70
2023-02-02T16:18:29.573Z,7.70
2023-02-02T16:21:00.278Z,7.70
2023-02-02T16:23:34.520Z,7.70
2023-02-02T16:26:05.823Z,7.70
2023-02-02T16:28:36.477Z,7.70
2023-02-02T16:31:05.659Z,7.70
2023-02-02T16:33:39.102Z,7.70
2023-02-02T16:36:25.183Z,7.70
2023-02-02T16:38:55.435Z,7.90
2023-02-02T16:41:33.839Z,8.10
2023-02-02T16:44:30.801Z,8.20
2023-02-02T16:47:01.757Z,8.30
2023-02-02T16:49:31.172Z,8.30
2023-02-02T16:52:23.588Z,8.30
2023-02-02T16:54:54.112Z,8.30
2023-02-02T16:57:26.772Z,8.40
2023-02-02T17:00:00.115Z,8.70
2023-02-02T17:02:31.701Z,8.60
2023-02-02T17:05:01.742Z,8.40
2023-02-02T17:07:31.847Z,8.40
2023-02-02T17:10:24.026Z,8.30
2023-02-02T17:12:52.360Z,8.30
2023-02-02T17:15:35.315Z,8.20
2023-02-02T17:18:06.743Z,8.10
2023-02-02T17:20:35.663Z,8.10
2023-02-02T17:23:06.954Z,8.00
2023-02-02T17:25:38.353Z,8.00
2023-02-02T17:28:12.365Z,7.90
2023-02-02T17:30:43.727Z,8.00
2023-02-02T17:33:14.764Z,8.00
2023-02-02T17:35:54.194Z,8.00
2023-02-02T17:38:24.700Z,8.00
2023-02-02T17:40:53.888Z,7.90
2023-02-02T17:43:22.688Z,7.90
2023-02-02T17:45:53.318Z,7.90
2023-02-02T17:48:21.793Z,7.90
2023-02-02T17:50:50.050Z,7.90
2023-02-02T17:53:20.861Z,7.90
2023-02-02T17:55:51.453Z,7.90
2023-02-02T17:58:19.955Z,7.90
2023-02-02T18:00:51.245Z,9.20
2023-02-02T18:03:23.922Z,7.80
2023-02-02T18:05:52.646Z,7.80
2023-02-02T18:08:20.961Z,7.80
2023-02-02T18:10:49.358Z,7.80
2023-02-02T18:13:20.159Z,7.80
2023-02-02T18:15:49.002Z,7.80
2023-02-02T18:18:17.522Z,7.80
2023-02-02T18:20:49.142Z,7.80
2023-02-02T18:23:18.383Z,7.80
2023-02-02T18:25:47.162Z,7.80
2023-02-02T18:28:17.951Z,7.80
2023-02-02T18:30:47.646Z,7.80
2023-02-02T18:33:19.720Z,7.80
2023-02-02T18:35:49.936Z,7.70
2023-02-02T18:38:19.631Z,7.80
2023-02-02T18:40:56.131Z,7.70
2023-02-02T18:43:24.518Z,7.70
2023-02-02T18:45:59.575Z,7.70
2023-02-02T18:48:27.989Z,7.80
2023-02-02T18:50:57.672Z,7.80
2023-02-02T18:53:26.375Z,7.80
2023-02-02T18:55:54.732Z,7.80
2023-02-02T18:58:23.036Z,7.80
2023-02-02T19:00:51.631Z,7.70
2023-02-02T19:03:19.982Z,7.80
2023-02-02T19:06:06.219Z,7.70
2023-02-02T19:08:35.867Z,7.70
2023-02-02T19:11:13.999Z,7.80
2023-02-02T19:13:42.230Z,7.80
2023-02-02T19:16:20.603Z,7.80
2023-02-02T19:18:49.005Z,7.80
2023-02-02T19:21:17.389Z,7.80
2023-02-02T19:23:47.661Z,7.70
2023-02-02T19:26:23.015Z,7.80
2023-02-02T19:28:52.149Z,7.80
2023-02-02T19:31:20.576Z,7.80
2023-02-02T19:33:50.559Z,7.80
2023-02-02T19:36:21.796Z,7.80
2023-02-02T19:38:53.509Z,7.80
2023-02-02T19:41:24.207Z,7.80
2023-02-02T19:43:58.431Z,7.80
2023-02-02T19:46:28.878Z,7.80
2023-02-02T19:49:05.614Z,7.80
2023-02-02T19:51:43.441Z,7.80
2023-02-02T19:54:29.847Z,7.80
2023-02-02T19:57:00.676Z,7.90
2023-02-02T19:59:36.137Z,7.90
2023-02-02T20:02:49.853Z,7.80
2023-02-02T20:05:23.374Z,7.80
2023-02-02T20:07:57.923Z,7.80
2023-02-02T20:10:30.418Z,7.80
2023-02-02T20:12:58.948Z,7.80
2023-02-02T20:15:32.513Z,7.80
2023-02-02T20:18:03.622Z,7.80
2023-02-02T20:20:39.393Z,7.80
2023-02-02T20:23:29.755Z,7.80
2023-02-02T20:26:00.555Z,7.90
2023-02-02T20:28:41.547Z,8.20
2023-02-02T20:31:12.158Z,8.30
2023-02-02T20:33:44.010Z,8.30
2023-02-02T20:36:33.771Z,8.40
2023-02-02T20:39:23.335Z,8.40
2023-02-02T20:41:54.242Z,8.40
2023-02-02T20:44:23.028Z,8.40
2023-02-02T20:46:51.598Z,8.40
2023-02-02T20:49:20.758Z,8.40
2023-02-02T20:51:49.416Z,8.40
2023-02-02T20:54:18.143Z,8.30
2023-02-02T20:56:46.740Z,8.40
2023-02-02T20:59:16.497Z,8.40
2023-02-02T21:01:45.032Z,8.40
2023-02-02T21:04:13.611Z,8.70
2023-02-02T21:06:42.338Z,8.80
2023-02-02T21:09:11.572Z,8.70
2023-02-02T21:11:43.003Z,8.60
2023-02-02T21:14:11.217Z,8.60
2023-02-02T21:16:40.931Z,8.60
2023-02-02T21:19:09.637Z,8.60
2023-02-02T21:21:38.007Z,8.60
2023-02-02T21:24:07.707Z,8.50
2023-02-02T21:26:35.947Z,8.50
2023-02-02T21:29:05.323Z,8.40
2023-02-02T21:31:35.323Z,8.40
2023-02-02T21:34:05.208Z,8.40
2023-02-02T21:36:36.266Z,8.30
2023-02-02T21:39:16.378Z,8.30
2023-02-02T21:41:45.019Z,8.20
2023-02-02T21:44:18.098Z,8.20
2023-02-02T21:46:48.856Z,8.10
2023-02-02T21:49:23.670Z,8.20
2023-02-02T21:51:52.634Z,8.20
2023-02-02T21:54:26.602Z,8.20
2023-02-02T21:56:55.489Z,8.20
2023-02-02T21:59:25.957Z,8.20
2023-02-02T22:01:54.307Z,8.20
2023-02-02T22:04:26.823Z,8.20
2023-02-02T22:06:57.650Z,8.10
2023-02-02T22:09:29.174Z,8.20
2023-02-02T22:11:59.254Z,8.20
2023-02-02T22:14:37.013Z,8.20
2023-02-02T22:17:23.746Z,8.20
2023-02-02T22:19:58.845Z,8.20
2023-02-02T22:22:32.011Z,8.10
2023-02-02T22:25:03.833Z,8.10
2023-02-02T22:27:41.954Z,8.10
2023-02-02T22:30:26.865Z,8.10
2023-02-02T22:32:56.042Z,8.10
2023-02-02T22:35:25.848Z,8.20
2023-02-02T22:37:54.316Z,8.10
2023-02-02T22:40:23.474Z,8.10
2023-02-02T22:42:52.128Z,8.10
2023-02-02T22:45:20.952Z,8.10
2023-02-02T22:47:49.909Z,8.10
2023-02-02T22:50:19.430Z,8.10
2023-02-02T22:52:49.176Z,8.10
2023-02-02T22:55:17.653Z,8.10
2023-02-02T22:57:46.008Z,8.10
2023-02-02T23:00:17.013Z,8.00
2023-02-02T23:02:45.408Z,8.10
2023-02-02T23:05:15.593Z,8.10
2023-02-02T23:07:45.229Z,8.20
2023-02-02T23:10:16.823Z,8.10
2023-02-02T23:12:45.004Z,8.10
2023-02-02T23:15:14.399Z,8.10
2023-02-02T23:17:43.175Z,8.10
2023-02-02T23:20:16.036Z,8.10
2023-02-02T23:22:44.449Z,8.00
2023-02-02T23:25:14.481Z,8.10
2023-02-02T23:27:43.496Z,8.00
2023-02-02T23:30:13.791Z,8.10
2023-02-02T23:32:42.452Z,8.10
2023-02-02T23:35:11.293Z,8.10
2023-02-02T23:37:39.701Z,8.10
2023-02-02T23:40:09.379Z,8.10
2023-02-02T23:42:38.992Z,8.00
2023-02-02T23:45:07.835Z,8.10
2023-02-02T23:47:36.965Z,8.10
2023-02-02T23:50:07.525Z,8.10
2023-02-02T23:52:36.493Z,8.10
2023-02-02T23:55:06.378Z,8.10
2023-02-02T23:57:36.617Z,8.10
